createdAt,value
2023-02-08T00:01:27.260Z,24.47
2023-02-08T00:03:55.362Z,32.00
2023-02-08T00:06:23.416Z,27.53
2023-02-08T00:08:52.757Z,29.67
2023-02-08T00:11:20.958Z,27.80
2023-02-08T00:13:48.991Z,33.60
2023-02-08T00:16:18.289Z,25.00
2023-02-08T00:18:46.451Z,24.27
2023-02-08T00:21:17.542Z,24.93
2023-02-08T00:23:46.335Z,23.83
2023-02-08T00:26:16.418Z,30.40
2023-02-08T00:28:44.656Z,24.67
2023-02-08T00:31:12.769Z,26.93
2023-02-08T00:33:40.882Z,24.87
2023-02-08T00:36:10.106Z,23.83
2023-02-08T00:38:38.364Z,23.57
2023-02-08T00:41:06.866Z,25.40
2023-02-08T00:43:36.241Z,23.70
2023-02-08T00:46:04.371Z,25.20
2023-02-08T00:48:33.110Z,23.40
2023-02-08T00:51:04.263Z,21.07
2023-02-08T00:53:36.570Z,20.30
2023-02-08T00:56:05.229Z,22.23
2023-02-08T00:58:33.553Z,19.80
2023-02-08T01:01:04.135Z,22.87
2023-02-08T01:03:34.590Z,24.00
2023-02-08T01:06:03.125Z,18.57
2023-02-08T01:08:31.173Z,20.30
2023-02-08T01:11:05.295Z,23.77
2023-02-08T01:13:33.305Z,19.87
2023-02-08T01:16:11.151Z,19.77
2023-02-08T01:18:39.926Z,22.30
2023-02-08T01:21:10.632Z,17.40
2023-02-08T01:23:39.006Z,24.20
2023-02-08T01:26:07.893Z,25.60
2023-02-08T01:28:36.478Z,16.23
2023-02-08T01:31:09.742Z,19.33
2023-02-08T01:33:38.325Z,20.10
2023-02-08T01:36:08.071Z,18.10
2023-02-08T01:38:37.382Z,16.07
2023-02-08T01:41:08.030Z,17.63
2023-02-08T01:44:00.412Z,18.90
2023-02-08T01:46:30.700Z,17.63
2023-02-08T01:49:04.058Z,19.27
2023-02-08T01:51:37.024Z,16.00
2023-02-08T01:54:08.425Z,17.63
2023-02-08T01:56:41.135Z,18.27
2023-02-08T01:59:14.626Z,20.83
2023-02-08T02:01:47.278Z,15.13
2023-02-08T02:04:16.456Z,16.50
2023-02-08T02:06:50.545Z,21.47
2023-02-08T02:09:24.378Z,21.53
2023-02-08T02:11:54.820Z,17.43
2023-02-08T02:14:23.461Z,19.50
2023-02-08T02:16:52.993Z,19.50
2023-02-08T02:19:34.450Z,16.97
2023-02-08T02:22:28.330Z,22.03
2023-02-08T02:25:23.407Z,17.60
2023-02-08T02:28:24.707Z,15.43
2023-02-08T02:31:41.200Z,16.50
2023-02-08T02:34:17.748Z,19.50
2023-02-08T02:36:52.877Z,16.73
2023-02-08T02:39:28.117Z,18.53
2023-02-08T02:42:29.527Z,17.47
2023-02-08T02:45:08.269Z,16.07
2023-02-08T02:47:46.473Z,19.43
2023-02-08T02:50:25.291Z,17.77
2023-02-08T02:53:01.608Z,15.53
2023-02-08T02:55:34.681Z,19.17
2023-02-08T02:58:04.182Z,17.33
2023-02-08T03:00:33.724Z,17.60
2023-02-08T03:03:01.813Z,15.83
2023-02-08T03:05:31.744Z,20.50
2023-02-08T03:08:15.824Z,18.60
2023-02-08T03:11:31.523Z,18.40
2023-02-08T03:14:16.902Z,15.93
2023-02-08T03:17:05.231Z,14.10
2023-02-08T03:19:39.434Z,15.13
2023-02-08T03:22:15.985Z,18.37
2023-02-08T03:24:55.079Z,16.87
2023-02-08T03:27:29.648Z,15.87
2023-02-08T03:30:03.179Z,17.50
2023-02-08T03:32:39.938Z,13.93
2023-02-08T03:35:12.684Z,17.07
2023-02-08T03:37:48.164Z,16.50
2023-02-08T03:40:22.607Z,16.00
2023-02-08T03:42:53.271Z,13.60
2023-02-08T03:45:26.453Z,17.03
2023-02-08T03:47:58.759Z,15.00
2023-02-08T03:50:28.481Z,21.50
2023-02-08T03:52:57.871Z,15.47
2023-02-08T03:55:29.012Z,16.87
2023-02-08T03:58:02.408Z,16.50
2023-02-08T04:00:34.348Z,13.03
2023-02-08T04:03:07.319Z,15.67
2023-02-08T04:05:35.663Z,14.63
2023-02-08T04:08:05.513Z,14.77
2023-02-08T04:10:33.580Z,13.70
2023-02-08T04:13:01.721Z,13.23
2023-02-08T04:15:29.775Z,13.93
2023-02-08T04:17:57.883Z,14.70
2023-02-08T04:20:26.202Z,22.73
2023-02-08T04:22:54.184Z,12.00
2023-02-08T04:25:23.663Z,14.43
2023-02-08T04:27:51.673Z,13.33
2023-02-08T04:30:19.894Z,12.13
2023-02-08T04:32:47.870Z,13.17
2023-02-08T04:35:15.928Z,13.20
2023-02-08T04:37:43.942Z,13.70
2023-02-08T04:40:13.061Z,11.90
2023-02-08T04:42:42.395Z,13.57
2023-02-08T04:45:11.364Z,13.40
2023-02-08T04:47:39.348Z,15.93
2023-02-08T04:50:07.854Z,17.00
2023-02-08T04:52:35.770Z,16.10
2023-02-08T04:55:03.734Z,16.23
2023-02-08T04:57:31.797Z,13.77
2023-02-08T05:00:01.200Z,12.90
2023-02-08T05:02:29.663Z,11.93
2023-02-08T05:04:57.671Z,12.50
2023-02-08T05:07:25.633Z,10.80
2023-02-08T05:09:53.675Z,12.70
2023-02-08T05:12:21.643Z,9.03
2023-02-08T05:14:49.631Z,12.53
2023-02-08T05:17:18.986Z,11.37
2023-02-08T05:19:46.955Z,11.80
2023-02-08T05:22:14.914Z,10.93
2023-02-08T05:24:42.858Z,14.60
2023-02-08T05:27:10.816Z,13.67
2023-02-08T05:29:38.782Z,14.77
2023-02-08T05:32:06.846Z,11.43
2023-02-08T05:34:38.053Z,10.43
2023-02-08T05:37:06.654Z,12.30
2023-02-08T05:39:34.648Z,12.63
2023-02-08T05:42:02.671Z,11.27
2023-02-08T05:44:30.661Z,9.90
2023-02-08T05:46:58.734Z,13.23
2023-02-08T05:49:27.245Z,11.67
2023-02-08T05:51:56.632Z,8.90
2023-02-08T05:54:24.896Z,13.63
2023-02-08T05:56:52.927Z,13.73
2023-02-08T05:59:20.946Z,14.47
2023-02-08T06:01:48.901Z,20.40
2023-02-08T06:04:16.993Z,10.80
2023-02-08T06:06:45.049Z,12.67
2023-02-08T06:09:14.426Z,15.17
2023-02-08T06:11:42.405Z,9.20
2023-02-08T06:14:10.412Z,10.77
2023-02-08T06:16:38.384Z,15.27
2023-02-08T06:19:06.538Z,9.43
2023-02-08T06:21:34.466Z,7.77
2023-02-08T06:24:03.809Z,10.10
2023-02-08T06:26:34.359Z,8.80
2023-02-08T06:29:02.577Z,10.47
2023-02-08T06:31:30.637Z,7.37
2023-02-08T06:33:58.621Z,10.13
2023-02-08T06:36:26.672Z,10.57
2023-02-08T06:38:54.758Z,9.53
2023-02-08T06:41:22.738Z,6.73
2023-02-08T06:43:52.167Z,10.40
2023-02-08T06:46:20.235Z,9.97
2023-02-08T06:48:48.193Z,8.03
2023-02-08T06:51:16.198Z,7.03
2023-02-08T06:53:44.179Z,8.40
2023-02-08T06:56:12.200Z,8.30
2023-02-08T06:58:40.185Z,7.80
2023-02-08T07:01:13.483Z,7.90
2023-02-08T07:03:42.603Z,7.60
2023-02-08T07:06:14.332Z,7.80
2023-02-08T07:08:42.743Z,6.30
2023-02-08T07:11:13.300Z,5.53
2023-02-08T07:13:41.344Z,7.83
2023-02-08T07:16:11.221Z,5.87
2023-02-08T07:18:39.269Z,5.73
2023-02-08T07:21:08.348Z,6.70
2023-02-08T07:23:36.340Z,5.73
2023-02-08T07:26:07.556Z,6.40
2023-02-08T07:28:36.050Z,6.27
2023-02-08T07:31:07.594Z,7.20
2023-02-08T07:33:37.198Z,6.67
2023-02-08T07:36:06.242Z,8.23
2023-02-08T07:38:34.869Z,6.10
2023-02-08T07:41:04.481Z,5.30
2023-02-08T07:43:34.884Z,6.13
2023-02-08T07:46:07.932Z,4.80
2023-02-08T07:48:40.223Z,6.10
2023-02-08T07:51:09.175Z,6.57
2023-02-08T07:53:38.097Z,9.77
2023-02-08T07:56:07.126Z,6.80
2023-02-08T07:58:35.147Z,6.20
2023-02-08T08:01:19.663Z,8.27
2023-02-08T08:03:52.469Z,6.37
2023-02-08T08:06:21.032Z,5.60
2023-02-08T08:08:49.278Z,5.03
2023-02-08T08:11:19.088Z,4.97
2023-02-08T08:13:47.092Z,5.93
2023-02-08T08:16:15.533Z,7.30
2023-02-08T08:18:43.709Z,4.97
2023-02-08T08:21:13.577Z,5.40
2023-02-08T08:23:41.597Z,5.97
2023-02-08T08:26:11.246Z,4.23
2023-02-08T08:28:39.517Z,5.70
2023-02-08T08:31:11.779Z,7.60
2023-02-08T08:33:39.814Z,5.33
2023-02-08T08:36:09.044Z,8.17
2023-02-08T08:38:38.792Z,5.83
2023-02-08T08:41:09.868Z,7.53
2023-02-08T08:43:37.963Z,4.60
2023-02-08T08:46:07.649Z,4.17
2023-02-08T08:48:36.238Z,6.10
2023-02-08T08:51:04.907Z,5.00
2023-02-08T08:53:32.949Z,4.83
2023-02-08T08:56:02.367Z,3.97
2023-02-08T08:58:30.639Z,5.20
2023-02-08T09:01:00.110Z,4.30
2023-02-08T09:03:29.587Z,5.60
2023-02-08T09:05:58.099Z,4.33
2023-02-08T09:08:26.134Z,4.77
2023-02-08T09:10:54.140Z,5.47
2023-02-08T09:13:23.440Z,4.23
2023-02-08T09:15:51.484Z,5.00
2023-02-08T09:18:19.741Z,3.87
2023-02-08T09:20:47.724Z,5.30
2023-02-08T09:23:15.775Z,4.30
2023-02-08T09:25:43.781Z,5.43
2023-02-08T09:28:11.742Z,4.70
2023-02-08T09:30:41.485Z,4.30
2023-02-08T09:33:09.730Z,7.37
2023-02-08T09:35:37.824Z,4.63
2023-02-08T09:38:06.010Z,4.13
2023-02-08T09:40:44.422Z,5.30
2023-02-08T09:43:19.318Z,5.60
2023-02-08T09:46:00.091Z,13.30
2023-02-08T09:48:33.596Z,5.50
2023-02-08T09:51:08.194Z,9.23
2023-02-08T09:53:41.490Z,5.93
2023-02-08T09:56:15.523Z,5.30
2023-02-08T09:58:46.557Z,9.03
2023-02-08T10:01:23.469Z,9.50
2023-02-08T10:03:56.937Z,9.10
2023-02-08T10:06:25.222Z,11.83
2023-02-08T10:08:54.427Z,8.30
2023-02-08T10:11:51.447Z,11.87
2023-02-08T10:14:54.057Z,11.27
2023-02-08T10:17:59.358Z,8.10
2023-02-08T10:20:44.473Z,7.17
2023-02-08T10:23:32.293Z,8.30
2023-02-08T10:26:14.808Z,6.47
2023-02-08T10:29:05.149Z,5.97
2023-02-08T10:31:52.340Z,5.50
2023-02-08T10:34:40.320Z,5.97
2023-02-08T10:37:17.898Z,4.90
2023-02-08T10:40:00.426Z,7.80
2023-02-08T10:42:31.012Z,4.90
2023-02-08T10:45:23.945Z,6.20
2023-02-08T10:47:58.091Z,4.57
2023-02-08T10:50:35.871Z,7.53
2023-02-08T10:53:05.136Z,5.03
2023-02-08T10:55:44.766Z,6.67
2023-02-08T10:58:21.282Z,6.50
2023-02-08T11:00:54.973Z,8.50
2023-02-08T11:03:28.880Z,9.30
2023-02-08T11:05:58.505Z,7.23
2023-02-08T11:08:32.012Z,7.40
2023-02-08T11:11:07.019Z,4.83
2023-02-08T11:13:39.311Z,4.50
2023-02-08T11:16:12.280Z,9.80
2023-02-08T11:18:48.641Z,5.87
2023-02-08T11:21:33.852Z,4.80
2023-02-08T11:24:10.522Z,9.40
2023-02-08T11:29:28.840Z,5.37
2023-02-08T11:32:10.728Z,5.53
2023-02-08T11:34:44.338Z,4.83
2023-02-08T11:37:26.904Z,4.77
2023-02-08T11:39:58.037Z,5.83
2023-02-08T11:42:29.088Z,5.27
2023-02-08T11:45:02.745Z,4.30
2023-02-08T11:47:34.426Z,6.77
2023-02-08T11:50:05.763Z,5.97
2023-02-08T11:52:39.075Z,7.77
2023-02-08T11:55:23.670Z,7.53
2023-02-08T11:57:57.888Z,4.70
2023-02-08T12:00:28.936Z,5.50
2023-02-08T12:03:01.556Z,4.97
2023-02-08T12:05:41.823Z,6.33
2023-02-08T12:08:20.419Z,20.07
2023-02-08T12:11:13.273Z,4.30
2023-02-08T12:14:06.770Z,5.30
2023-02-08T12:16:56.989Z,4.30
2023-02-08T12:19:56.693Z,4.07
2023-02-08T12:22:27.483Z,6.40
2023-02-08T12:25:16.996Z,8.13
2023-02-08T12:27:52.611Z,4.60
2023-02-08T12:30:30.015Z,7.00
2023-02-08T12:33:18.347Z,5.10
2023-02-08T12:36:25.688Z,11.27
2023-02-08T12:39:35.992Z,14.80
2023-02-08T12:42:41.173Z,11.13
2023-02-08T12:45:41.992Z,14.23
2023-02-08T12:48:28.702Z,20.80
2023-02-08T12:51:06.648Z,9.43
2023-02-08T12:53:39.579Z,9.37
2023-02-08T12:56:14.343Z,14.47
2023-02-08T12:58:47.191Z,11.43
2023-02-08T13:01:19.579Z,13.30
2023-02-08T13:03:52.742Z,12.30
2023-02-08T13:06:26.793Z,11.70
2023-02-08T13:09:02.049Z,7.47
2023-02-08T13:11:38.099Z,7.93
2023-02-08T13:14:15.550Z,7.53
2023-02-08T13:16:48.203Z,8.03
2023-02-08T13:19:30.996Z,7.00
2023-02-08T13:22:08.543Z,8.20
2023-02-08T13:24:40.018Z,9.80
2023-02-08T13:27:08.601Z,5.57
2023-02-08T13:29:39.550Z,6.67
2023-02-08T13:32:15.402Z,6.10
2023-02-08T13:34:47.766Z,4.83
2023-02-08T13:37:31.276Z,6.87
2023-02-08T13:40:04.838Z,4.60
2023-02-08T13:42:39.644Z,6.10
2023-02-08T13:45:24.810Z,4.90
2023-02-08T13:48:00.566Z,5.80
2023-02-08T13:50:50.762Z,4.83
2023-02-08T13:54:09.996Z,4.80
2023-02-08T13:56:44.160Z,4.60
2023-02-08T13:59:43.723Z,4.50
2023-02-08T14:02:30.651Z,5.60
2023-02-08T14:05:47.798Z,4.40
2023-02-08T14:08:25.118Z,5.57
2023-02-08T14:11:13.391Z,3.73
2023-02-08T14:13:48.535Z,5.70
2023-02-08T14:16:34.082Z,5.93
2023-02-08T14:19:05.112Z,4.50
2023-02-08T14:21:39.432Z,6.40
2023-02-08T14:24:21.706Z,4.90
2023-02-08T14:26:51.471Z,6.73
2023-02-08T14:29:25.567Z,8.30
2023-02-08T14:31:54.106Z,7.47
2023-02-08T14:34:29.562Z,4.97
2023-02-08T14:37:06.619Z,4.20
2023-02-08T14:39:37.415Z,3.93
2023-02-08T14:42:08.754Z,4.07
2023-02-08T14:45:02.845Z,6.33
2023-02-08T14:47:57.417Z,3.53
2023-02-08T14:50:37.813Z,4.90
2023-02-08T14:53:18.131Z,6.73
2023-02-08T14:55:53.221Z,4.93
2023-02-08T14:58:31.546Z,4.87
2023-02-08T15:01:05.966Z,5.30
2023-02-08T15:03:36.284Z,7.60
2023-02-08T15:06:35.004Z,3.57
2023-02-08T15:09:04.652Z,3.63
2023-02-08T15:11:36.061Z,5.30
2023-02-08T15:14:05.885Z,5.97
2023-02-08T15:16:37.537Z,10.03
2023-02-08T15:19:09.581Z,8.30
2023-02-08T15:21:38.775Z,6.27
2023-02-08T15:24:16.578Z,6.60
2023-02-08T15:26:51.384Z,5.67
2023-02-08T15:29:26.171Z,13.70
2023-02-08T15:31:58.711Z,5.27
2023-02-08T15:34:27.577Z,9.43
2023-02-08T15:36:57.488Z,4.27
2023-02-08T15:39:38.397Z,5.80
2023-02-08T15:42:18.052Z,8.47
2023-02-08T15:44:46.514Z,6.50
2023-02-08T15:47:18.727Z,9.50
2023-02-08T15:49:50.652Z,4.57
2023-02-08T15:52:22.335Z,6.87
2023-02-08T15:54:50.644Z,3.53
2023-02-08T15:57:35.491Z,8.03
2023-02-08T16:00:06.955Z,4.30
2023-02-08T16:02:36.042Z,10.73
2023-02-08T16:05:18.541Z,6.60
2023-02-08T16:07:47.862Z,4.27
2023-02-08T16:10:33.486Z,3.97
2023-02-08T16:13:07.495Z,6.47
2023-02-08T16:15:42.784Z,6.63
2023-02-08T16:18:35.701Z,7.37
2023-02-08T16:21:06.546Z,3.90
2023-02-08T16:23:39.315Z,2.83
2023-02-08T16:26:18.528Z,4.93
2023-02-08T16:28:54.495Z,3.83
2023-02-08T16:31:26.799Z,4.07
2023-02-08T16:34:04.352Z,7.57
2023-02-08T16:36:40.880Z,7.53
2023-02-08T16:39:54.852Z,5.23
2023-02-08T16:42:40.883Z,5.67
2023-02-08T16:45:20.004Z,12.20
2023-02-08T16:47:52.450Z,5.97
2023-02-08T16:50:22.773Z,9.73
2023-02-08T16:52:54.340Z,8.98
2023-02-08T16:55:26.451Z,7.87
2023-02-08T16:57:57.301Z,12.03
2023-02-08T17:00:30.186Z,7.90
2023-02-08T17:02:58.901Z,11.95
2023-02-08T17:05:30.075Z,10.30
2023-02-08T17:07:59.678Z,15.30
2023-02-08T17:10:30.350Z,7.33
2023-02-08T17:13:18.342Z,7.90
2023-02-08T17:15:51.572Z,5.73
2023-02-08T17:18:20.520Z,6.73
2023-02-08T17:20:49.304Z,4.23
2023-02-08T17:23:17.627Z,5.63
2023-02-08T17:25:46.045Z,7.63
2023-02-08T17:28:18.834Z,6.90
2023-02-08T17:30:49.823Z,7.47
2023-02-08T17:33:21.192Z,6.40
2023-02-08T17:35:51.711Z,5.87
2023-02-08T17:38:21.122Z,5.82
2023-02-08T17:40:49.727Z,3.73
2023-02-08T17:43:17.816Z,4.10
2023-02-08T17:45:46.627Z,7.77
2023-02-08T17:48:16.346Z,5.47
2023-02-08T17:50:50.773Z,7.03
2023-02-08T17:53:19.869Z,9.00
2023-02-08T17:55:48.320Z,7.13
2023-02-08T17:58:17.534Z,13.73
2023-02-08T18:00:45.906Z,7.37
2023-02-08T18:03:17.183Z,4.50
2023-02-08T18:05:45.325Z,5.23
2023-02-08T18:08:13.589Z,4.70
2023-02-08T18:10:42.565Z,7.40
2023-02-08T18:13:10.614Z,3.27
2023-02-08T18:15:38.558Z,5.50
2023-02-08T18:18:06.845Z,4.43
2023-02-08T18:20:36.303Z,7.10
2023-02-08T18:23:04.308Z,9.20
2023-02-08T18:25:32.301Z,4.47
2023-02-08T18:28:00.367Z,5.70
2023-02-08T18:30:28.430Z,5.20
2023-02-08T18:32:56.406Z,5.17
2023-02-08T18:35:24.542Z,10.13
2023-02-08T18:37:53.813Z,6.50
2023-02-08T18:40:21.951Z,5.40
2023-02-08T18:42:49.913Z,10.20
2023-02-08T18:45:17.997Z,7.43
2023-02-08T18:47:46.072Z,7.20
2023-02-08T18:50:14.419Z,4.70
2023-02-08T18:52:42.445Z,6.70
2023-02-08T18:55:11.815Z,10.90
2023-02-08T18:57:39.964Z,7.43
2023-02-08T19:00:09.701Z,7.00
2023-02-08T19:02:39.627Z,7.90
2023-02-08T19:05:08.432Z,11.53
2023-02-08T19:07:38.638Z,7.20
2023-02-08T19:10:08.549Z,5.53
2023-02-08T19:12:38.442Z,9.07
2023-02-08T19:15:07.572Z,11.13
2023-02-08T19:17:35.558Z,5.27
2023-02-08T19:20:03.811Z,8.30
2023-02-08T19:22:31.954Z,7.37
2023-02-08T19:24:59.957Z,6.73
2023-02-08T19:27:28.007Z,6.37
2023-02-08T19:29:57.599Z,8.27
2023-02-08T19:32:25.594Z,8.83
2023-02-08T19:34:53.563Z,6.10
2023-02-08T19:37:21.692Z,9.33
2023-02-08T19:39:49.704Z,7.60
2023-02-08T19:42:17.754Z,11.02
2023-02-08T19:44:45.747Z,9.87
2023-02-08T19:47:15.079Z,7.63
2023-02-08T19:49:43.901Z,4.67
2023-02-08T19:52:11.929Z,12.60
2023-02-08T19:54:39.944Z,6.03
2023-02-08T19:57:11.561Z,5.57
2023-02-08T19:59:39.784Z,6.47
2023-02-08T20:02:11.599Z,6.03
2023-02-08T20:04:42.554Z,8.20
2023-02-08T20:07:11.114Z,4.50
2023-02-08T20:09:39.148Z,7.73
2023-02-08T20:12:07.999Z,9.77
2023-02-08T20:14:36.028Z,9.30
2023-02-08T20:17:05.113Z,8.30
2023-02-08T20:19:36.705Z,6.33
2023-02-08T20:22:06.278Z,4.40
2023-02-08T20:24:34.299Z,5.40
2023-02-08T20:27:02.309Z,5.80
2023-02-08T20:29:30.713Z,7.23
2023-02-08T20:31:59.423Z,6.00
2023-02-08T20:34:27.577Z,6.50
2023-02-08T20:37:06.744Z,7.13
2023-02-08T20:39:38.310Z,5.60
2023-02-08T20:42:07.262Z,4.50
2023-02-08T20:44:35.425Z,5.63
2023-02-08T20:47:03.480Z,4.57
2023-02-08T20:49:32.538Z,6.13
2023-02-08T20:52:01.180Z,6.10
2023-02-08T20:54:29.472Z,5.53
2023-02-08T20:56:59.096Z,5.07
2023-02-08T20:59:27.169Z,5.20
2023-02-08T21:01:55.845Z,4.27
2023-02-08T21:04:24.295Z,3.93
2023-02-08T21:06:53.014Z,5.60
2023-02-08T21:09:21.628Z,6.13
2023-02-08T21:11:50.129Z,6.10
2023-02-08T21:14:23.192Z,7.13
2023-02-08T21:16:56.070Z,6.97
2023-02-08T21:19:24.920Z,5.23
2023-02-08T21:21:54.011Z,5.10
2023-02-08T21:24:23.759Z,8.20
2023-02-08T21:26:52.526Z,6.20
2023-02-08T21:29:22.839Z,5.20
2023-02-08T21:31:54.141Z,5.40
2023-02-08T21:34:23.012Z,3.87
2023-02-08T21:36:51.196Z,4.57
2023-02-08T21:39:19.281Z,4.97
2023-02-08T21:41:48.168Z,5.27
2023-02-08T21:44:16.281Z,4.87
2023-02-08T21:46:45.995Z,6.73
2023-02-08T21:49:31.693Z,5.67
2023-02-08T21:52:17.268Z,3.73
2023-02-08T21:54:46.065Z,4.83
2023-02-08T21:57:18.733Z,5.03
2023-02-08T21:59:48.675Z,5.00
2023-02-08T22:02:21.602Z,4.17
2023-02-08T22:05:08.617Z,3.40
2023-02-08T22:07:45.541Z,5.97
2023-02-08T22:10:16.998Z,4.40
2023-02-08T22:12:45.350Z,7.87
2023-02-08T22:15:16.268Z,9.60
2023-02-08T22:17:46.345Z,9.60
2023-02-08T22:20:16.148Z,5.57
2023-02-08T22:22:45.329Z,14.23
2023-02-08T22:25:13.594Z,13.47
2023-02-08T22:27:42.247Z,10.47
2023-02-08T22:30:14.139Z,10.37
2023-02-08T22:32:42.853Z,9.20
2023-02-08T22:35:13.947Z,5.60
2023-02-08T22:37:42.413Z,10.23
2023-02-08T22:40:12.646Z,8.00
2023-02-08T22:42:41.928Z,6.13
2023-02-08T22:45:11.089Z,6.47
2023-02-08T22:47:39.997Z,6.67
2023-02-08T22:50:09.593Z,6.67
2023-02-08T22:52:39.395Z,11.37
2023-02-08T22:55:08.742Z,5.40
2023-02-08T22:57:37.091Z,7.67
2023-02-08T23:00:08.535Z,6.27
2023-02-08T23:02:36.949Z,7.50
2023-02-08T23:05:05.446Z,7.53
2023-02-08T23:07:33.750Z,6.67
2023-02-08T23:10:03.308Z,6.40
2023-02-08T23:12:31.783Z,4.50
2023-02-08T23:15:02.654Z,5.80
2023-02-08T23:17:30.761Z,6.60
2023-02-08T23:19:59.400Z,5.67
2023-02-08T23:22:31.283Z,6.83
2023-02-08T23:25:05.728Z,4.57
2023-02-08T23:27:35.117Z,4.80
2023-02-08T23:30:03.246Z,12.20
2023-02-08T23:32:31.446Z,7.83
2023-02-08T23:34:59.746Z,7.77
2023-02-08T23:37:30.927Z,4.10
2023-02-08T23:40:00.882Z,5.47
2023-02-08T23:42:29.823Z,12.63
2023-02-08T23:45:03.132Z,3.97
2023-02-08T23:47:32.424Z,5.23
2023-02-08T23:50:00.463Z,6.13
2023-02-08T23:52:28.865Z,6.63
2023-02-08T23:54:57.192Z,4.70
2023-02-08T23:57:32.611Z,4.97
